Main page
METAR-TAF:

METAR-TAF

Airports :

Amman Civil Airport

Amman, Jordan

latitude: 31-59N, longitude: 035-59E, elevation: 767 m

Current weather observation

The report was made 53 minutes ago, at 18:00 UTC
Wind 8 kt from the West/Northwest
Temperature 22°C
Humidity 65%
Pressure 1014 hPa
Visibility: 6000 m

METAR: OJAM 161800Z 29008KT 6000 NSC 22/15 Q1014 NOSIG

Time: 21:53 (18:53 UTC)

Forecast

The report was made 1 hour and 53 minutes ago, at 17:00 UTC
Forecast valid from 16 at 18 UTC to 17 at 24 UTC
Wind 10 kt from the West
Visibility: 5000 m
Few clouds at a height of 3000 ft
haze
Probability 30%
from 17 at 02 UTC to 17 at 06 UTC
Wind 2 kt from variable directions
Visibility: 4000 m
mist

TAF: OJAM 161700Z 1618/1724 28010KT 5000 HZ FEW030 PROB30 1702/1706 VRB02KT 4000 BR

Weather observations and forecasts of more than 4000 airports (METAR and TAF reports).

The available stations are represented by yellow and red dots on the map.

Hover mouse over dot to see the name of the station.

Then click to see weather observations and forecasts.

To change the map : click on the green buttons with a black cross to zoom in, on the green button with a dash to zoom out, or on the green arrows for adjacent maps.


METAR-TAF: